sensor_id;sensor_type;location;lat;lon;timestamp;P1;durP1;ratioP1;P2;durP2;ratioP2
43184;SDS011;28803;52.308;19.096;2023-07-20T00:01:15;3.25;;;1.67;;
43184;SDS011;28803;52.308;19.096;2023-07-20T00:03:42;2.47;;;1.20;;
43184;SDS011;28803;52.308;19.096;2023-07-20T00:06:10;5.05;;;1.38;;
43184;SDS011;28803;52.308;19.096;2023-07-20T00:08:37;2.58;;;1.50;;
43184;SDS011;28803;52.308;19.096;2023-07-20T00:15:11;2.38;;;1.30;;
43184;SDS011;28803;52.308;19.096;2023-07-20T00:17:38;2.50;;;1.25;;
43184;SDS011;28803;52.308;19.096;2023-07-20T00:20:06;3.67;;;1.38;;
43184;SDS011;28803;52.308;19.096;2023-07-20T00:22:34;3.35;;;1.67;;
43184;SDS011;28803;52.308;19.096;2023-07-20T00:25:02;2.15;;;1.23;;
43184;SDS011;28803;52.308;19.096;2023-07-20T00:27:29;3.38;;;1.40;;
43184;SDS011;28803;52.308;19.096;2023-07-20T00:29:56;4.38;;;1.20;;
43184;SDS011;28803;52.308;19.096;2023-07-20T00:32:24;3.60;;;1.30;;
43184;SDS011;28803;52.308;19.096;2023-07-20T00:34:51;3.53;;;1.60;;
43184;SDS011;28803;52.308;19.096;2023-07-20T00:37:19;3.47;;;1.73;;
43184;SDS011;28803;52.308;19.096;2023-07-20T00:39:46;3.60;;;1.55;;
43184;SDS011;28803;52.308;19.096;2023-07-20T00:42:13;3.90;;;2.22;;
43184;SDS011;28803;52.308;19.096;2023-07-20T00:44:40;2.75;;;1.30;;
43184;SDS011;28803;52.308;19.096;2023-07-20T00:47:08;6.60;;;1.35;;
43184;SDS011;28803;52.308;19.096;2023-07-20T00:49:35;3.45;;;1.35;;
43184;SDS011;28803;52.308;19.096;2023-07-20T00:52:03;2.65;;;1.60;;
43184;SDS011;28803;52.308;19.096;2023-07-20T00:54:34;7.05;;;1.98;;
43184;SDS011;28803;52.308;19.096;2023-07-20T00:57:01;2.95;;;1.40;;
43184;SDS011;28803;52.308;19.096;2023-07-20T00:59:29;2.80;;;1.70;;
43184;SDS011;28803;52.308;19.096;2023-07-20T01:01:57;3.15;;;1.65;;
43184;SDS011;28803;52.308;19.096;2023-07-20T01:04:24;2.88;;;1.45;;
43184;SDS011;28803;52.308;19.096;2023-07-20T01:06:57;3.55;;;2.00;;
43184;SDS011;28803;52.308;19.096;2023-07-20T01:09:46;4.80;;;1.80;;
43184;SDS011;28803;52.308;19.096;2023-07-20T01:12:26;3.38;;;2.08;;
43184;SDS011;28803;52.308;19.096;2023-07-20T01:14:59;5.05;;;1.67;;
43184;SDS011;28803;52.308;19.096;2023-07-20T01:17:27;3.50;;;1.88;;
43184;SDS011;28803;52.308;19.096;2023-07-20T01:19:54;3.72;;;2.00;;
43184;SDS011;28803;52.308;19.096;2023-07-20T01:28:03;3.08;;;1.80;;
43184;SDS011;28803;52.308;19.096;2023-07-20T01:33:22;5.03;;;2.42;;
43184;SDS011;28803;52.308;19.096;2023-07-20T01:35:53;4.97;;;2.10;;
43184;SDS011;28803;52.308;19.096;2023-07-20T01:38:24;5.10;;;2.03;;
43184;SDS011;28803;52.308;19.096;2023-07-20T01:40:52;2.80;;;1.60;;
43184;SDS011;28803;52.308;19.096;2023-07-20T01:43:19;4.68;;;2.38;;
43184;SDS011;28803;52.308;19.096;2023-07-20T01:45:47;3.60;;;1.73;;
43184;SDS011;28803;52.308;19.096;2023-07-20T01:48:14;3.85;;;2.03;;
43184;SDS011;28803;52.308;19.096;2023-07-20T01:50:41;3.78;;;1.98;;
43184;SDS011;28803;52.308;19.096;2023-07-20T01:53:09;4.35;;;1.88;;
43184;SDS011;28803;52.308;19.096;2023-07-20T01:55:37;5.82;;;2.13;;
43184;SDS011;28803;52.308;19.096;2023-07-20T01:58:04;4.80;;;1.98;;
43184;SDS011;28803;52.308;19.096;2023-07-20T02:00:32;4.20;;;1.50;;
43184;SDS011;28803;52.308;19.096;2023-07-20T02:03:00;4.05;;;1.63;;
43184;SDS011;28803;52.308;19.096;2023-07-20T02:05:27;6.25;;;2.00;;
43184;SDS011;28803;52.308;19.096;2023-07-20T02:07:54;5.72;;;2.65;;
43184;SDS011;28803;52.308;19.096;2023-07-20T02:10:21;7.35;;;2.47;;
43184;SDS011;28803;52.308;19.096;2023-07-20T02:12:49;5.72;;;2.80;;
43184;SDS011;28803;52.308;19.096;2023-07-20T02:15:16;7.35;;;3.40;;
43184;SDS011;28803;52.308;19.096;2023-07-20T02:17:45;7.22;;;2.50;;
43184;SDS011;28803;52.308;19.096;2023-07-20T02:20:12;5.75;;;2.55;;
43184;SDS011;28803;52.308;19.096;2023-07-20T02:22:40;4.10;;;2.70;;
43184;SDS011;28803;52.308;19.096;2023-07-20T02:25:08;18.15;;;2.90;;
43184;SDS011;28803;52.308;19.096;2023-07-20T02:27:35;4.85;;;3.00;;
43184;SDS011;28803;52.308;19.096;2023-07-20T02:30:04;5.25;;;2.75;;
43184;SDS011;28803;52.308;19.096;2023-07-20T02:32:32;5.13;;;3.15;;
43184;SDS011;28803;52.308;19.096;2023-07-20T02:35:00;13.20;;;3.38;;
43184;SDS011;28803;52.308;19.096;2023-07-20T02:37:30;9.05;;;2.80;;
43184;SDS011;28803;52.308;19.096;2023-07-20T02:39:58;3.92;;;2.72;;
43184;SDS011;28803;52.308;19.096;2023-07-20T02:42:25;4.63;;;2.83;;
43184;SDS011;28803;52.308;19.096;2023-07-20T02:44:52;6.60;;;3.50;;
43184;SDS011;28803;52.308;19.096;2023-07-20T02:47:19;4.63;;;2.83;;
43184;SDS011;28803;52.308;19.096;2023-07-20T02:49:47;5.90;;;2.60;;
43184;SDS011;28803;52.308;19.096;2023-07-20T02:52:14;5.43;;;3.08;;
43184;SDS011;28803;52.308;19.096;2023-07-20T02:54:41;5.28;;;3.55;;
43184;SDS011;28803;52.308;19.096;2023-07-20T02:57:09;5.78;;;3.40;;
43184;SDS011;28803;52.308;19.096;2023-07-20T02:59:36;4.80;;;3.38;;
43184;SDS011;28803;52.308;19.096;2023-07-20T03:02:03;4.90;;;3.58;;
43184;SDS011;28803;52.308;19.096;2023-07-20T03:04:30;5.13;;;3.83;;
43184;SDS011;28803;52.308;19.096;2023-07-20T03:06:58;9.00;;;4.10;;
43184;SDS011;28803;52.308;19.096;2023-07-20T03:09:26;4.68;;;2.90;;
43184;SDS011;28803;52.308;19.096;2023-07-20T03:11:54;4.68;;;3.25;;
43184;SDS011;28803;52.308;19.096;2023-07-20T03:14:21;8.02;;;3.67;;
43184;SDS011;28803;52.308;19.096;2023-07-20T03:16:49;6.45;;;3.60;;
43184;SDS011;28803;52.308;19.096;2023-07-20T03:19:16;6.20;;;3.80;;
43184;SDS011;28803;52.308;19.096;2023-07-20T03:21:44;5.38;;;3.38;;
43184;SDS011;28803;52.308;19.096;2023-07-20T03:24:11;7.30;;;3.90;;
43184;SDS011;28803;52.308;19.096;2023-07-20T03:26:38;5.47;;;3.78;;
43184;SDS011;28803;52.308;19.096;2023-07-20T03:29:06;8.48;;;3.03;;
43184;SDS011;28803;52.308;19.096;2023-07-20T03:31:33;7.18;;;4.20;;
43184;SDS011;28803;52.308;19.096;2023-07-20T03:34:00;6.10;;;3.88;;
43184;SDS011;28803;52.308;19.096;2023-07-20T03:36:28;7.35;;;3.97;;
43184;SDS011;28803;52.308;19.096;2023-07-20T03:38:55;7.53;;;3.58;;
43184;SDS011;28803;52.308;19.096;2023-07-20T03:41:22;8.95;;;3.33;;
43184;SDS011;28803;52.308;19.096;2023-07-20T03:43:49;7.63;;;4.47;;
43184;SDS011;28803;52.308;19.096;2023-07-20T03:46:17;4.88;;;4.10;;
43184;SDS011;28803;52.308;19.096;2023-07-20T03:48:44;5.35;;;3.35;;
43184;SDS011;28803;52.308;19.096;2023-07-20T03:51:11;5.80;;;3.33;;
43184;SDS011;28803;52.308;19.096;2023-07-20T03:53:38;6.15;;;3.55;;
43184;SDS011;28803;52.308;19.096;2023-07-20T03:56:06;5.60;;;4.20;;
43184;SDS011;28803;52.308;19.096;2023-07-20T03:58:33;6.88;;;3.65;;
43184;SDS011;28803;52.308;19.096;2023-07-20T04:01:00;6.20;;;4.10;;
43184;SDS011;28803;52.308;19.096;2023-07-20T04:03:27;6.80;;;4.05;;
43184;SDS011;28803;52.308;19.096;2023-07-20T04:05:55;5.53;;;3.22;;
43184;SDS011;28803;52.308;19.096;2023-07-20T04:08:23;7.32;;;3.42;;
43184;SDS011;28803;52.308;19.096;2023-07-20T04:10:51;6.05;;;3.65;;
43184;SDS011;28803;52.308;19.096;2023-07-20T04:13:19;7.18;;;3.65;;
43184;SDS011;28803;52.308;19.096;2023-07-20T04:15:46;5.53;;;3.00;;
43184;SDS011;28803;52.308;19.096;2023-07-20T04:18:14;7.57;;;3.88;;
43184;SDS011;28803;52.308;19.096;2023-07-20T04:20:41;6.35;;;3.97;;
43184;SDS011;28803;52.308;19.096;2023-07-20T04:23:09;13.68;;;7.40;;
43184;SDS011;28803;52.308;19.096;2023-07-20T04:25:38;13.57;;;9.98;;
43184;SDS011;28803;52.308;19.096;2023-07-20T04:28:06;15.15;;;10.98;;
43184;SDS011;28803;52.308;19.096;2023-07-20T04:30:37;17.23;;;11.88;;
43184;SDS011;28803;52.308;19.096;2023-07-20T04:33:06;13.00;;;8.40;;
43184;SDS011;28803;52.308;19.096;2023-07-20T04:35:50;7.38;;;5.40;;
43184;SDS011;28803;52.308;19.096;2023-07-20T04:38:18;7.63;;;5.15;;
43184;SDS011;28803;52.308;19.096;2023-07-20T04:40:47;6.60;;;4.20;;
43184;SDS011;28803;52.308;19.096;2023-07-20T04:43:15;3.85;;;3.08;;
43184;SDS011;28803;52.308;19.096;2023-07-20T04:45:44;5.88;;;3.00;;
43184;SDS011;28803;52.308;19.096;2023-07-20T04:48:12;3.22;;;2.50;;
43184;SDS011;28803;52.308;19.096;2023-07-20T04:50:43;3.65;;;2.80;;
43184;SDS011;28803;52.308;19.096;2023-07-20T04:53:12;4.60;;;2.53;;
43184;SDS011;28803;52.308;19.096;2023-07-20T04:55:39;3.75;;;2.92;;
43184;SDS011;28803;52.308;19.096;2023-07-20T04:58:07;7.50;;;3.33;;
43184;SDS011;28803;52.308;19.096;2023-07-20T05:00:35;5.15;;;2.80;;
43184;SDS011;28803;52.308;19.096;2023-07-20T05:03:04;5.78;;;2.47;;
43184;SDS011;28803;52.308;19.096;2023-07-20T05:05:32;5.95;;;3.40;;
43184;SDS011;28803;52.308;19.096;2023-07-20T05:07:59;6.00;;;2.83;;
43184;SDS011;28803;52.308;19.096;2023-07-20T05:10:27;3.45;;;2.65;;
43184;SDS011;28803;52.308;19.096;2023-07-20T05:12:54;4.35;;;2.67;;
43184;SDS011;28803;52.308;19.096;2023-07-20T05:15:22;6.80;;;3.28;;
43184;SDS011;28803;52.308;19.096;2023-07-20T05:17:49;5.70;;;2.90;;
43184;SDS011;28803;52.308;19.096;2023-07-20T05:20:16;3.42;;;2.20;;
43184;SDS011;28803;52.308;19.096;2023-07-20T05:22:44;6.35;;;3.67;;
43184;SDS011;28803;52.308;19.096;2023-07-20T05:25:11;10.32;;;3.85;;
43184;SDS011;28803;52.308;19.096;2023-07-20T05:27:39;5.93;;;3.25;;
43184;SDS011;28803;52.308;19.096;2023-07-20T05:30:07;6.53;;;3.35;;
43184;SDS011;28803;52.308;19.096;2023-07-20T05:32:34;6.10;;;4.15;;
43184;SDS011;28803;52.308;19.096;2023-07-20T05:35:01;6.63;;;3.72;;
43184;SDS011;28803;52.308;19.096;2023-07-20T05:37:29;9.38;;;4.90;;
43184;SDS011;28803;52.308;19.096;2023-07-20T05:39:57;8.50;;;5.22;;
43184;SDS011;28803;52.308;19.096;2023-07-20T05:42:24;10.55;;;4.90;;
43184;SDS011;28803;52.308;19.096;2023-07-20T05:44:51;5.03;;;3.42;;
43184;SDS011;28803;52.308;19.096;2023-07-20T05:47:19;4.22;;;2.92;;
43184;SDS011;28803;52.308;19.096;2023-07-20T05:49:47;4.43;;;2.53;;
43184;SDS011;28803;52.308;19.096;2023-07-20T05:52:14;7.55;;;3.35;;
43184;SDS011;28803;52.308;19.096;2023-07-20T05:54:41;3.83;;;3.20;;
43184;SDS011;28803;52.308;19.096;2023-07-20T05:57:08;4.85;;;2.58;;
43184;SDS011;28803;52.308;19.096;2023-07-20T05:59:36;3.47;;;2.53;;
43184;SDS011;28803;52.308;19.096;2023-07-20T06:02:05;3.58;;;2.30;;
43184;SDS011;28803;52.308;19.096;2023-07-20T06:04:34;4.28;;;2.65;;
43184;SDS011;28803;52.308;19.096;2023-07-20T06:07:01;4.00;;;2.75;;
43184;SDS011;28803;52.308;19.096;2023-07-20T06:09:29;5.55;;;2.90;;
43184;SDS011;28803;52.308;19.096;2023-07-20T06:11:57;3.53;;;2.70;;
43184;SDS011;28803;52.308;19.096;2023-07-20T06:14:24;5.53;;;2.65;;
43184;SDS011;28803;52.308;19.096;2023-07-20T06:16:51;6.60;;;2.80;;
43184;SDS011;28803;52.308;19.096;2023-07-20T06:19:19;4.82;;;3.25;;
43184;SDS011;28803;52.308;19.096;2023-07-20T06:21:46;4.03;;;2.90;;
43184;SDS011;28803;52.308;19.096;2023-07-20T06:24:14;4.60;;;3.20;;
43184;SDS011;28803;52.308;19.096;2023-07-20T06:26:41;5.03;;;3.17;;
43184;SDS011;28803;52.308;19.096;2023-07-20T06:29:08;8.13;;;3.60;;
43184;SDS011;28803;52.308;19.096;2023-07-20T06:31:36;5.03;;;2.92;;
43184;SDS011;28803;52.308;19.096;2023-07-20T06:34:03;7.47;;;3.15;;
43184;SDS011;28803;52.308;19.096;2023-07-20T06:36:30;4.20;;;3.08;;
43184;SDS011;28803;52.308;19.096;2023-07-20T06:38:58;4.72;;;3.33;;
43184;SDS011;28803;52.308;19.096;2023-07-20T06:41:28;5.10;;;2.65;;
43184;SDS011;28803;52.308;19.096;2023-07-20T06:43:58;6.18;;;3.47;;
43184;SDS011;28803;52.308;19.096;2023-07-20T06:46:26;4.72;;;2.70;;
43184;SDS011;28803;52.308;19.096;2023-07-20T06:48:54;5.30;;;2.97;;
43184;SDS011;28803;52.308;19.096;2023-07-20T06:51:24;5.07;;;2.67;;
43184;SDS011;28803;52.308;19.096;2023-07-20T06:53:52;7.88;;;2.70;;
43184;SDS011;28803;52.308;19.096;2023-07-20T06:56:19;3.72;;;2.50;;
43184;SDS011;28803;52.308;19.096;2023-07-20T06:58:51;3.83;;;2.05;;
43184;SDS011;28803;52.308;19.096;2023-07-20T07:01:18;3.72;;;2.53;;
43184;SDS011;28803;52.308;19.096;2023-07-20T07:03:48;5.35;;;2.67;;
43184;SDS011;28803;52.308;19.096;2023-07-20T07:06:21;4.93;;;2.03;;
43184;SDS011;28803;52.308;19.096;2023-07-20T07:08:50;5.18;;;2.38;;
43184;SDS011;28803;52.308;19.096;2023-07-20T07:11:20;5.57;;;2.35;;
43184;SDS011;28803;52.308;19.096;2023-07-20T07:13:48;3.63;;;2.03;;
43184;SDS011;28803;52.308;19.096;2023-07-20T07:16:17;3.80;;;2.00;;
43184;SDS011;28803;52.308;19.096;2023-07-20T07:18:47;5.25;;;2.40;;
43184;SDS011;28803;52.308;19.096;2023-07-20T07:21:16;4.07;;;2.17;;
43184;SDS011;28803;52.308;19.096;2023-07-20T07:23:44;4.18;;;1.85;;
43184;SDS011;28803;52.308;19.096;2023-07-20T07:26:12;4.03;;;2.25;;
43184;SDS011;28803;52.308;19.096;2023-07-20T07:28:39;3.97;;;2.58;;
43184;SDS011;28803;52.308;19.096;2023-07-20T07:31:07;3.33;;;2.17;;
43184;SDS011;28803;52.308;19.096;2023-07-20T07:33:34;3.88;;;1.83;;
43184;SDS011;28803;52.308;19.096;2023-07-20T07:36:02;3.08;;;1.77;;
43184;SDS011;28803;52.308;19.096;2023-07-20T07:38:29;3.30;;;2.25;;
43184;SDS011;28803;52.308;19.096;2023-07-20T07:41:16;3.40;;;2.03;;
43184;SDS011;28803;52.308;19.096;2023-07-20T07:43:44;3.13;;;2.13;;
43184;SDS011;28803;52.308;19.096;2023-07-20T07:46:11;3.28;;;1.67;;
43184;SDS011;28803;52.308;19.096;2023-07-20T07:48:39;2.85;;;1.80;;
43184;SDS011;28803;52.308;19.096;2023-07-20T07:51:06;5.30;;;1.77;;
43184;SDS011;28803;52.308;19.096;2023-07-20T07:53:34;3.90;;;1.80;;
43184;SDS011;28803;52.308;19.096;2023-07-20T07:56:03;6.32;;;2.28;;
43184;SDS011;28803;52.308;19.096;2023-07-20T07:58:33;3.70;;;1.75;;
43184;SDS011;28803;52.308;19.096;2023-07-20T08:01:01;4.65;;;2.05;;
43184;SDS011;28803;52.308;19.096;2023-07-20T08:03:28;3.78;;;2.30;;
43184;SDS011;28803;52.308;19.096;2023-07-20T08:05:56;6.57;;;3.30;;
43184;SDS011;28803;52.308;19.096;2023-07-20T08:08:23;4.80;;;2.45;;
43184;SDS011;28803;52.308;19.096;2023-07-20T08:10:53;5.28;;;1.98;;
43184;SDS011;28803;52.308;19.096;2023-07-20T08:13:22;5.80;;;2.15;;
43184;SDS011;28803;52.308;19.096;2023-07-20T08:15:50;6.93;;;2.45;;
43184;SDS011;28803;52.308;19.096;2023-07-20T08:18:18;5.38;;;2.30;;
43184;SDS011;28803;52.308;19.096;2023-07-20T08:20:46;3.55;;;2.30;;
43184;SDS011;28803;52.308;19.096;2023-07-20T08:23:14;4.55;;;1.52;;
43184;SDS011;28803;52.308;19.096;2023-07-20T08:25:41;3.92;;;2.22;;
43184;SDS011;28803;52.308;19.096;2023-07-20T08:28:11;4.93;;;2.53;;
43184;SDS011;28803;52.308;19.096;2023-07-20T08:30:42;4.60;;;1.90;;
43184;SDS011;28803;52.308;19.096;2023-07-20T08:33:15;11.00;;;2.10;;
43184;SDS011;28803;52.308;19.096;2023-07-20T08:35:45;3.33;;;1.98;;
43184;SDS011;28803;52.308;19.096;2023-07-20T08:38:14;2.55;;;1.73;;
43184;SDS011;28803;52.308;19.096;2023-07-20T08:40:42;4.03;;;2.00;;
43184;SDS011;28803;52.308;19.096;2023-07-20T08:43:12;5.78;;;2.15;;
43184;SDS011;28803;52.308;19.096;2023-07-20T08:45:40;2.70;;;1.90;;
43184;SDS011;28803;52.308;19.096;2023-07-20T08:48:08;4.18;;;2.05;;
43184;SDS011;28803;52.308;19.096;2023-07-20T08:50:36;2.95;;;1.65;;
43184;SDS011;28803;52.308;19.096;2023-07-20T08:53:05;3.30;;;1.65;;
43184;SDS011;28803;52.308;19.096;2023-07-20T08:55:32;3.75;;;2.00;;
43184;SDS011;28803;52.308;19.096;2023-07-20T08:58:01;4.45;;;2.20;;
43184;SDS011;28803;52.308;19.096;2023-07-20T09:00:29;5.32;;;2.80;;
43184;SDS011;28803;52.308;19.096;2023-07-20T09:02:57;4.85;;;2.85;;
43184;SDS011;28803;52.308;19.096;2023-07-20T09:05:27;4.90;;;3.22;;
43184;SDS011;28803;52.308;19.096;2023-07-20T09:07:55;5.20;;;3.33;;
43184;SDS011;28803;52.308;19.096;2023-07-20T09:10:22;4.90;;;3.22;;
43184;SDS011;28803;52.308;19.096;2023-07-20T09:12:51;4.15;;;2.78;;
43184;SDS011;28803;52.308;19.096;2023-07-20T09:15:18;5.03;;;3.45;;
43184;SDS011;28803;52.308;19.096;2023-07-20T09:17:47;5.50;;;2.45;;
43184;SDS011;28803;52.308;19.096;2023-07-20T09:20:20;3.95;;;2.58;;
43184;SDS011;28803;52.308;19.096;2023-07-20T09:22:50;6.68;;;2.65;;
43184;SDS011;28803;52.308;19.096;2023-07-20T09:25:19;5.72;;;2.80;;
43184;SDS011;28803;52.308;19.096;2023-07-20T09:27:48;6.97;;;3.70;;
43184;SDS011;28803;52.308;19.096;2023-07-20T09:30:17;8.90;;;3.70;;
43184;SDS011;28803;52.308;19.096;2023-07-20T09:32:46;7.97;;;3.47;;
43184;SDS011;28803;52.308;19.096;2023-07-20T09:35:20;8.25;;;3.55;;
43184;SDS011;28803;52.308;19.096;2023-07-20T09:40:27;9.25;;;2.53;;
43184;SDS011;28803;52.308;19.096;2023-07-20T09:42:58;8.85;;;3.33;;
43184;SDS011;28803;52.308;19.096;2023-07-20T09:45:34;7.30;;;3.00;;
43184;SDS011;28803;52.308;19.096;2023-07-20T09:48:24;6.85;;;2.97;;
43184;SDS011;28803;52.308;19.096;2023-07-20T09:50:55;7.13;;;2.53;;
43184;SDS011;28803;52.308;19.096;2023-07-20T09:53:24;5.25;;;2.13;;
43184;SDS011;28803;52.308;19.096;2023-07-20T09:55:52;4.30;;;2.35;;
43184;SDS011;28803;52.308;19.096;2023-07-20T09:58:21;5.45;;;2.25;;
43184;SDS011;28803;52.308;19.096;2023-07-20T10:00:48;4.82;;;2.42;;
43184;SDS011;28803;52.308;19.096;2023-07-20T10:03:20;3.90;;;2.35;;
43184;SDS011;28803;52.308;19.096;2023-07-20T10:05:54;6.07;;;3.30;;
43184;SDS011;28803;52.308;19.096;2023-07-20T10:08:30;5.45;;;3.63;;
43184;SDS011;28803;52.308;19.096;2023-07-20T10:11:03;8.15;;;4.53;;
43184;SDS011;28803;52.308;19.096;2023-07-20T10:13:31;8.15;;;3.45;;
43184;SDS011;28803;52.308;19.096;2023-07-20T10:16:07;5.50;;;3.20;;
43184;SDS011;28803;52.308;19.096;2023-07-20T10:21:17;6.63;;;3.08;;
43184;SDS011;28803;52.308;19.096;2023-07-20T10:23:52;8.98;;;3.33;;
43184;SDS011;28803;52.308;19.096;2023-07-20T10:26:24;6.95;;;2.28;;
43184;SDS011;28803;52.308;19.096;2023-07-20T10:28:53;6.72;;;1.70;;
43184;SDS011;28803;52.308;19.096;2023-07-20T10:31:20;4.05;;;1.83;;
43184;SDS011;28803;52.308;19.096;2023-07-20T10:33:50;3.63;;;1.70;;
43184;SDS011;28803;52.308;19.096;2023-07-20T10:36:24;4.80;;;1.92;;
43184;SDS011;28803;52.308;19.096;2023-07-20T10:38:58;5.10;;;2.22;;
43184;SDS011;28803;52.308;19.096;2023-07-20T10:41:29;3.20;;;2.28;;
43184;SDS011;28803;52.308;19.096;2023-07-20T10:44:05;3.47;;;2.42;;
43184;SDS011;28803;52.308;19.096;2023-07-20T10:46:35;4.03;;;2.67;;
43184;SDS011;28803;52.308;19.096;2023-07-20T10:49:11;5.50;;;3.22;;
43184;SDS011;28803;52.308;19.096;2023-07-20T10:51:40;7.03;;;4.05;;
43184;SDS011;28803;52.308;19.096;2023-07-20T10:56:43;6.18;;;3.55;;
43184;SDS011;28803;52.308;19.096;2023-07-20T11:01:54;5.45;;;2.97;;
43184;SDS011;28803;52.308;19.096;2023-07-20T11:04:37;4.80;;;3.20;;
43184;SDS011;28803;52.308;19.096;2023-07-20T11:07:05;7.55;;;3.05;;
43184;SDS011;28803;52.308;19.096;2023-07-20T11:09:36;4.30;;;2.70;;
43184;SDS011;28803;52.308;19.096;2023-07-20T11:12:14;5.07;;;2.60;;
43184;SDS011;28803;52.308;19.096;2023-07-20T11:14:43;4.28;;;2.53;;
43184;SDS011;28803;52.308;19.096;2023-07-20T11:17:28;3.90;;;2.40;;
43184;SDS011;28803;52.308;19.096;2023-07-20T11:20:29;3.80;;;2.50;;
43184;SDS011;28803;52.308;19.096;2023-07-20T11:22:57;3.90;;;2.50;;
43184;SDS011;28803;52.308;19.096;2023-07-20T11:25:35;2.70;;;2.17;;
43184;SDS011;28803;52.308;19.096;2023-07-20T11:28:09;2.30;;;1.90;;
43184;SDS011;28803;52.308;19.096;2023-07-20T11:30:38;4.85;;;3.22;;
43184;SDS011;28803;52.308;19.096;2023-07-20T11:33:08;4.88;;;1.95;;
43184;SDS011;28803;52.308;19.096;2023-07-20T11:35:36;4.45;;;2.03;;
43184;SDS011;28803;52.308;19.096;2023-07-20T11:38:09;3.10;;;1.80;;
43184;SDS011;28803;52.308;19.096;2023-07-20T11:40:37;2.88;;;1.52;;
43184;SDS011;28803;52.308;19.096;2023-07-20T11:43:11;3.83;;;2.10;;
43184;SDS011;28803;52.308;19.096;2023-07-20T11:45:45;5.00;;;2.83;;
43184;SDS011;28803;52.308;19.096;2023-07-20T11:48:15;4.78;;;2.47;;
43184;SDS011;28803;52.308;19.096;2023-07-20T11:50:43;5.80;;;2.40;;
43184;SDS011;28803;52.308;19.096;2023-07-20T11:53:11;4.78;;;2.40;;
43184;SDS011;28803;52.308;19.096;2023-07-20T11:55:40;4.45;;;2.60;;
43184;SDS011;28803;52.308;19.096;2023-07-20T11:58:08;3.63;;;2.10;;
43184;SDS011;28803;52.308;19.096;2023-07-20T12:00:37;3.20;;;2.25;;
43184;SDS011;28803;52.308;19.096;2023-07-20T12:03:06;5.80;;;2.75;;
43184;SDS011;28803;52.308;19.096;2023-07-20T12:05:34;4.72;;;2.60;;
43184;SDS011;28803;52.308;19.096;2023-07-20T12:08:22;3.60;;;2.50;;
43184;SDS011;28803;52.308;19.096;2023-07-20T12:10:50;4.45;;;2.22;;
43184;SDS011;28803;52.308;19.096;2023-07-20T12:13:18;3.38;;;1.38;;
43184;SDS011;28803;52.308;19.096;2023-07-20T12:15:46;3.70;;;0.90;;
43184;SDS011;28803;52.308;19.096;2023-07-20T12:18:13;2.88;;;0.73;;
43184;SDS011;28803;52.308;19.096;2023-07-20T12:20:41;2.83;;;0.98;;
43184;SDS011;28803;52.308;19.096;2023-07-20T12:23:09;3.60;;;1.38;;
43184;SDS011;28803;52.308;19.096;2023-07-20T12:25:38;4.45;;;0.98;;
43184;SDS011;28803;52.308;19.096;2023-07-20T12:28:08;1.70;;;0.82;;
43184;SDS011;28803;52.308;19.096;2023-07-20T12:30:37;2.00;;;0.95;;
43184;SDS011;28803;52.308;19.096;2023-07-20T12:33:05;1.70;;;1.00;;
43184;SDS011;28803;52.308;19.096;2023-07-20T12:35:33;1.30;;;0.50;;
43184;SDS011;28803;52.308;19.096;2023-07-20T12:38:01;3.45;;;1.60;;
43184;SDS011;28803;52.308;19.096;2023-07-20T12:40:28;7.05;;;2.78;;
43184;SDS011;28803;52.308;19.096;2023-07-20T12:42:56;0.98;;;0.52;;
43184;SDS011;28803;52.308;19.096;2023-07-20T12:45:24;2.08;;;0.50;;
43184;SDS011;28803;52.308;19.096;2023-07-20T12:47:51;1.02;;;0.38;;
43184;SDS011;28803;52.308;19.096;2023-07-20T12:50:18;0.30;;;0.22;;
43184;SDS011;28803;52.308;19.096;2023-07-20T12:52:46;1.50;;;0.40;;
43184;SDS011;28803;52.308;19.096;2023-07-20T12:55:13;0.55;;;0.40;;
43184;SDS011;28803;52.308;19.096;2023-07-20T12:57:41;2.30;;;0.40;;
43184;SDS011;28803;52.308;19.096;2023-07-20T13:00:09;1.88;;;0.55;;
43184;SDS011;28803;52.308;19.096;2023-07-20T13:02:38;0.93;;;0.20;;
43184;SDS011;28803;52.308;19.096;2023-07-20T13:05:06;0.70;;;0.22;;
43184;SDS011;28803;52.308;19.096;2023-07-20T13:07:34;0.75;;;0.30;;
43184;SDS011;28803;52.308;19.096;2023-07-20T13:10:06;1.13;;;0.30;;
43184;SDS011;28803;52.308;19.096;2023-07-20T13:12:35;0.32;;;0.20;;
43184;SDS011;28803;52.308;19.096;2023-07-20T13:15:04;1.35;;;0.47;;
43184;SDS011;28803;52.308;19.096;2023-07-20T13:17:33;1.17;;;0.40;;
43184;SDS011;28803;52.308;19.096;2023-07-20T13:20:06;0.60;;;0.30;;
43184;SDS011;28803;52.308;19.096;2023-07-20T13:22:37;0.90;;;0.22;;
43184;SDS011;28803;52.308;19.096;2023-07-20T13:25:05;1.02;;;0.10;;
43184;SDS011;28803;52.308;19.096;2023-07-20T13:27:35;0.30;;;0.20;;
43184;SDS011;28803;52.308;19.096;2023-07-20T13:30:04;0.40;;;0.20;;
43184;SDS011;28803;52.308;19.096;2023-07-20T13:32:38;2.72;;;0.60;;
43184;SDS011;28803;52.308;19.096;2023-07-20T13:35:13;1.60;;;0.32;;
43184;SDS011;28803;52.308;19.096;2023-07-20T13:37:41;0.50;;;0.17;;
43184;SDS011;28803;52.308;19.096;2023-07-20T13:40:08;0.82;;;0.40;;
43184;SDS011;28803;52.308;19.096;2023-07-20T13:45:07;1.13;;;0.30;;
43184;SDS011;28803;52.308;19.096;2023-07-20T13:47:35;0.50;;;0.25;;
43184;SDS011;28803;52.308;19.096;2023-07-20T13:50:03;0.32;;;0.20;;
43184;SDS011;28803;52.308;19.096;2023-07-20T13:52:33;0.85;;;0.30;;
43184;SDS011;28803;52.308;19.096;2023-07-20T13:55:03;0.73;;;0.10;;
43184;SDS011;28803;52.308;19.096;2023-07-20T13:57:32;0.75;;;0.10;;
43184;SDS011;28803;52.308;19.096;2023-07-20T14:00:01;0.70;;;0.30;;
43184;SDS011;28803;52.308;19.096;2023-07-20T14:02:36;0.82;;;0.22;;
43184;SDS011;28803;52.308;19.096;2023-07-20T14:05:06;0.68;;;0.20;;
43184;SDS011;28803;52.308;19.096;2023-07-20T14:07:36;1.40;;;0.20;;
43184;SDS011;28803;52.308;19.096;2023-07-20T14:10:04;0.52;;;0.10;;
43184;SDS011;28803;52.308;19.096;2023-07-20T14:12:35;1.40;;;0.10;;
43184;SDS011;28803;52.308;19.096;2023-07-20T14:15:02;1.23;;;0.38;;
43184;SDS011;28803;52.308;19.096;2023-07-20T14:17:31;0.35;;;0.10;;
43184;SDS011;28803;52.308;19.096;2023-07-20T14:19:59;0.68;;;0.35;;
43184;SDS011;28803;52.308;19.096;2023-07-20T14:22:26;0.68;;;0.30;;
43184;SDS011;28803;52.308;19.096;2023-07-20T14:24:53;0.65;;;0.30;;
43184;SDS011;28803;52.308;19.096;2023-07-20T14:27:21;0.30;;;0.10;;
43184;SDS011;28803;52.308;19.096;2023-07-20T14:29:48;0.63;;;0.22;;
43184;SDS011;28803;52.308;19.096;2023-07-20T14:32:16;1.63;;;0.20;;
43184;SDS011;28803;52.308;19.096;2023-07-20T14:34:43;0.77;;;0.30;;
43184;SDS011;28803;52.308;19.096;2023-07-20T14:37:10;0.93;;;0.38;;
43184;SDS011;28803;52.308;19.096;2023-07-20T14:39:40;0.88;;;0.50;;
43184;SDS011;28803;52.308;19.096;2023-07-20T14:42:07;1.83;;;0.75;;
43184;SDS011;28803;52.308;19.096;2023-07-20T14:44:34;2.10;;;0.55;;
43184;SDS011;28803;52.308;19.096;2023-07-20T14:47:03;1.80;;;0.50;;
43184;SDS011;28803;52.308;19.096;2023-07-20T14:49:41;2.75;;;1.00;;
43184;SDS011;28803;52.308;19.096;2023-07-20T14:52:08;0.82;;;0.40;;
43184;SDS011;28803;52.308;19.096;2023-07-20T14:54:39;1.00;;;0.63;;
43184;SDS011;28803;52.308;19.096;2023-07-20T14:57:07;1.42;;;0.70;;
43184;SDS011;28803;52.308;19.096;2023-07-20T14:59:40;8.75;;;4.90;;
43184;SDS011;28803;52.308;19.096;2023-07-20T15:02:11;3.10;;;1.60;;
43184;SDS011;28803;52.308;19.096;2023-07-20T15:04:51;1.08;;;0.60;;
43184;SDS011;28803;52.308;19.096;2023-07-20T15:07:20;1.63;;;0.60;;
43184;SDS011;28803;52.308;19.096;2023-07-20T15:09:48;1.98;;;0.65;;